createdAt,value
2018-03-02T00:00:25.691Z,59.37
2018-03-02T00:02:52.295Z,60.42
2018-03-02T00:05:18.969Z,59.88
2018-03-02T00:07:45.574Z,60.71
2018-03-02T00:10:12.178Z,60.50
2018-03-02T00:12:38.760Z,61.44
2018-03-02T00:15:05.334Z,61.67
2018-03-02T00:17:32.671Z,61.66
2018-03-02T00:19:59.252Z,60.56
2018-03-02T00:22:26.555Z,59.62
2018-03-02T00:24:53.153Z,59.47
2018-03-02T00:27:19.766Z,60.44
2018-03-02T00:29:47.113Z,60.57
2018-03-02T00:32:13.748Z,60.94
2018-03-02T00:34:41.091Z,60.86
2018-03-02T00:37:08.395Z,60.79
2018-03-02T00:39:34.962Z,61.30
2018-03-02T00:42:01.506Z,61.14
2018-03-02T00:44:28.084Z,61.15
2018-03-02T00:46:55.367Z,61.20
2018-03-02T00:49:21.921Z,60.59
2018-03-02T00:51:48.467Z,60.96
2018-03-02T00:54:15.125Z,61.02
2018-03-02T00:56:41.770Z,60.71
2018-03-02T00:59:08.884Z,60.86
2018-03-02T01:01:35.421Z,60.77
2018-03-02T01:04:02.778Z,61.47
2018-03-02T01:06:29.434Z,61.21
2018-03-02T01:08:56.789Z,62.05
2018-03-02T01:11:24.126Z,62.21
2018-03-02T01:13:50.755Z,62.13
2018-03-02T01:16:17.317Z,62.33
2018-03-02T01:18:44.753Z,62.13
2018-03-02T01:21:12.074Z,61.95
2018-03-02T01:23:38.928Z,61.84
2018-03-02T01:26:05.509Z,61.97
2018-03-02T01:28:32.822Z,61.41
2018-03-02T01:30:59.396Z,61.50
2018-03-02T01:33:25.998Z,61.25
2018-03-02T01:35:52.603Z,61.42
2018-03-02T01:38:19.894Z,60.88
2018-03-02T01:40:46.479Z,60.83
2018-03-02T01:43:13.126Z,61.54
2018-03-02T01:45:40.455Z,61.49
2018-03-02T01:48:07.040Z,61.01
2018-03-02T01:50:33.660Z,61.20
2018-03-02T01:53:00.267Z,61.06
2018-03-02T01:55:27.595Z,61.99
2018-03-02T01:57:54.192Z,62.24
2018-03-02T02:00:20.778Z,62.01
2018-03-02T02:02:48.120Z,62.38
2018-03-02T02:05:14.729Z,62.39
2018-03-02T02:07:41.327Z,61.85
2018-03-02T02:10:07.948Z,61.99
2018-03-02T02:12:34.550Z,62.55
2018-03-02T02:15:01.138Z,62.56
2018-03-02T02:17:28.667Z,63.12
2018-03-02T02:19:55.202Z,63.94
2018-03-02T02:22:22.481Z,64.03
2018-03-02T02:24:49.811Z,64.21
2018-03-02T02:27:16.383Z,64.34
2018-03-02T02:29:43.682Z,64.17
2018-03-02T02:32:10.236Z,64.12
2018-03-02T02:34:36.846Z,64.72
2018-03-02T02:37:03.490Z,64.46
2018-03-02T02:39:30.048Z,64.49
2018-03-02T02:41:56.964Z,64.50
2018-03-02T02:44:23.523Z,63.67
2018-03-02T02:46:50.073Z,63.21
2018-03-02T02:49:16.655Z,62.25
2018-03-02T02:51:43.205Z,63.24
2018-03-02T02:54:09.834Z,62.80
2018-03-02T02:56:36.378Z,62.18
2018-03-02T02:59:02.946Z,62.39
2018-03-02T03:01:29.552Z,62.31
2018-03-02T03:03:56.137Z,62.65
2018-03-02T03:06:22.939Z,62.95
2018-03-02T03:08:49.554Z,62.94
2018-03-02T03:11:16.136Z,63.24
2018-03-02T03:13:42.732Z,64.12
2018-03-02T03:16:09.337Z,63.87
2018-03-02T03:18:36.675Z,64.03
2018-03-02T03:21:03.230Z,63.07
2018-03-02T03:23:30.549Z,63.68
2018-03-02T03:25:57.102Z,64.61
2018-03-02T03:28:23.673Z,63.95
2018-03-02T03:30:50.947Z,64.46
2018-03-02T03:33:17.538Z,64.58
2018-03-02T03:35:44.857Z,64.86
2018-03-02T03:38:11.434Z,63.72
2018-03-02T03:40:38.090Z,63.62
2018-03-02T03:43:04.645Z,64.32
2018-03-02T03:45:32.023Z,64.21
2018-03-02T03:47:58.602Z,63.79
2018-03-02T03:50:25.258Z,62.93
2018-03-02T03:52:51.822Z,62.21
2018-03-02T03:55:18.398Z,63.41
2018-03-02T03:57:45.037Z,62.87
2018-03-02T04:00:11.667Z,63.42
2018-03-02T04:02:39.019Z,63.14
2018-03-02T04:05:05.612Z,63.66
2018-03-02T04:07:32.193Z,63.60
2018-03-02T04:09:58.726Z,64.50
2018-03-02T04:12:25.747Z,64.80
2018-03-02T04:14:52.302Z,65.46
2018-03-02T04:17:19.614Z,65.26
2018-03-02T04:19:46.182Z,65.62
2018-03-02T04:22:12.739Z,65.69
2018-03-02T04:24:39.285Z,65.14
2018-03-02T04:27:06.570Z,65.06
2018-03-02T04:29:33.159Z,65.71
2018-03-02T04:31:59.722Z,64.76
2018-03-02T04:34:27.039Z,64.78
2018-03-02T04:36:53.584Z,64.62
2018-03-02T04:39:20.183Z,64.44
2018-03-02T04:41:46.734Z,64.95
2018-03-02T04:44:13.324Z,64.91
2018-03-02T04:46:39.858Z,65.00
2018-03-02T04:49:07.446Z,65.10
2018-03-02T04:51:34.034Z,65.33
2018-03-02T04:54:00.566Z,65.53
2018-03-02T04:56:27.881Z,65.53
2018-03-02T04:58:54.481Z,65.44
2018-03-02T05:01:21.806Z,66.00
2018-03-02T05:03:48.708Z,65.20
2018-03-02T05:06:15.270Z,65.51
2018-03-02T05:08:41.890Z,65.84
2018-03-02T05:11:08.845Z,66.05
2018-03-02T05:13:35.564Z,65.50
2018-03-02T05:16:02.143Z,64.94
2018-03-02T05:18:28.786Z,64.77
2018-03-02T05:20:55.350Z,65.17
2018-03-02T05:23:22.673Z,65.31
2018-03-02T05:25:50.030Z,65.58
2018-03-02T05:28:16.589Z,65.81
2018-03-02T05:30:43.875Z,65.96
2018-03-02T05:33:10.706Z,65.74
2018-03-02T05:35:37.274Z,65.94
2018-03-02T05:38:03.862Z,66.63
2018-03-02T05:40:31.162Z,65.72
2018-03-02T05:42:57.701Z,66.34
2018-03-02T05:45:24.614Z,66.39
2018-03-02T05:47:51.155Z,66.20
2018-03-02T05:50:17.717Z,65.86
2018-03-02T05:52:44.283Z,65.63
2018-03-02T05:55:10.882Z,66.00
2018-03-02T05:57:37.521Z,65.73
2018-03-02T06:00:04.194Z,65.83
2018-03-02T06:02:31.497Z,65.74
2018-03-02T06:04:58.054Z,65.73
2018-03-02T06:07:24.654Z,66.07
2018-03-02T06:09:51.283Z,65.62
2018-03-02T06:12:18.976Z,65.53
2018-03-02T06:14:45.517Z,65.69
2018-03-02T06:17:12.109Z,65.64
2018-03-02T06:19:38.707Z,65.45
2018-03-02T06:22:05.362Z,65.94
2018-03-02T06:24:31.970Z,65.88
2018-03-02T06:26:58.533Z,65.93
2018-03-02T06:29:25.904Z,65.77
2018-03-02T06:31:52.484Z,65.53
2018-03-02T06:34:19.819Z,65.64
2018-03-02T06:36:46.411Z,65.61
2018-03-02T06:39:13.001Z,65.76
2018-03-02T06:41:39.588Z,65.81
2018-03-02T06:44:06.918Z,65.65
2018-03-02T06:46:33.494Z,65.70
2018-03-02T06:49:00.063Z,65.78
2018-03-02T06:51:26.661Z,65.68
2018-03-02T06:53:53.245Z,65.49
2018-03-02T06:56:19.893Z,65.21
2018-03-02T06:58:46.815Z,65.61
2018-03-02T07:01:13.440Z,65.76
2018-03-02T07:03:40.035Z,65.72
2018-03-02T07:06:07.514Z,65.12
2018-03-02T07:08:34.880Z,65.10
2018-03-02T07:11:01.447Z,65.74
2018-03-02T07:13:28.298Z,65.40
2018-03-02T07:15:54.866Z,64.90
2018-03-02T07:18:21.506Z,65.03
2018-03-02T07:20:48.847Z,64.97
2018-03-02T07:23:15.395Z,65.65
2018-03-02T07:25:42.251Z,65.24
2018-03-02T07:28:09.750Z,65.28
2018-03-02T07:30:36.301Z,65.11
2018-03-02T07:33:02.864Z,65.37
2018-03-02T07:35:29.421Z,65.18
2018-03-02T07:37:56.051Z,64.44
2018-03-02T07:40:22.668Z,64.72
2018-03-02T07:42:49.207Z,64.65
2018-03-02T07:45:15.758Z,64.32
2018-03-02T07:47:42.379Z,63.87
2018-03-02T07:50:08.939Z,63.25
2018-03-02T07:52:36.251Z,62.80
2018-03-02T07:55:02.843Z,62.38
2018-03-02T07:57:30.165Z,62.55
2018-03-02T07:59:56.719Z,62.25
2018-03-02T08:02:24.066Z,61.92
2018-03-02T08:04:50.643Z,60.36
2018-03-02T08:07:17.274Z,58.48
2018-03-02T08:09:43.878Z,54.90
2018-03-02T08:12:10.435Z,53.06
2018-03-02T08:14:37.046Z,54.23
2018-03-02T08:17:04.383Z,53.98
2018-03-02T08:19:30.990Z,53.10
2018-03-02T08:21:57.683Z,48.18
2018-03-02T08:24:25.019Z,43.38
2018-03-02T08:26:51.843Z,40.01
2018-03-02T08:29:18.427Z,37.15
2018-03-02T08:31:45.004Z,34.54
2018-03-02T08:34:11.576Z,33.81
2018-03-02T08:36:38.128Z,32.16
2018-03-02T08:39:04.793Z,30.81
2018-03-02T08:41:32.195Z,31.34
2018-03-02T08:43:59.741Z,32.09
2018-03-02T08:46:26.312Z,29.68
2018-03-02T08:48:52.907Z,30.38
2018-03-02T08:51:19.496Z,30.27
2018-03-02T08:53:46.064Z,27.62
2018-03-02T08:56:12.608Z,29.36
2018-03-02T08:58:39.188Z,28.24
2018-03-02T09:01:06.507Z,27.80
2018-03-02T09:03:33.094Z,27.56
2018-03-02T09:06:00.183Z,27.04
2018-03-02T09:08:26.743Z,25.56
2018-03-02T09:10:54.068Z,27.71
2018-03-02T09:13:20.976Z,24.78
2018-03-02T09:15:47.999Z,25.62
2018-03-02T09:18:14.592Z,26.46
2018-03-02T09:20:41.166Z,27.73
2018-03-02T09:23:07.734Z,26.15
2018-03-02T09:25:34.330Z,26.45
2018-03-02T09:28:00.886Z,25.66
2018-03-02T09:30:27.779Z,26.05
2018-03-02T09:32:54.346Z,26.13
2018-03-02T09:35:20.946Z,24.23
2018-03-02T09:37:47.512Z,25.12
2018-03-02T09:40:15.137Z,25.72
2018-03-02T09:42:41.708Z,24.29
2018-03-02T09:45:08.309Z,24.15
2018-03-02T09:47:34.912Z,25.12
2018-03-02T09:50:02.546Z,24.13
2018-03-02T09:52:29.115Z,22.40
2018-03-02T09:54:56.426Z,24.07
2018-03-02T09:57:23.054Z,24.96
2018-03-02T09:59:49.684Z,25.17
2018-03-02T10:02:16.282Z,24.43
2018-03-02T10:04:43.603Z,24.37
2018-03-02T10:07:10.177Z,25.36
2018-03-02T10:09:37.487Z,25.11
2018-03-02T10:12:04.399Z,25.83
2018-03-02T10:14:30.966Z,26.85
2018-03-02T10:16:57.512Z,26.96
2018-03-02T10:19:24.107Z,26.82
2018-03-02T10:21:50.697Z,26.50
2018-03-02T10:24:17.329Z,27.12
2018-03-02T10:26:43.893Z,25.84
2018-03-02T10:29:10.867Z,27.15
2018-03-02T10:31:37.543Z,26.93
2018-03-02T10:34:04.807Z,25.40
2018-03-02T10:36:31.404Z,25.26
2018-03-02T10:38:57.937Z,26.40
2018-03-02T10:41:24.510Z,26.32
2018-03-02T10:43:51.101Z,26.86
2018-03-02T10:46:17.674Z,28.58
2018-03-02T10:48:44.231Z,28.19
2018-03-02T10:51:10.787Z,28.25
2018-03-02T10:53:37.402Z,27.25
2018-03-02T10:56:04.717Z,27.17
2018-03-02T10:58:31.546Z,26.56
2018-03-02T11:00:58.149Z,27.73
2018-03-02T11:03:24.758Z,27.18
2018-03-02T11:05:52.471Z,27.89
2018-03-02T11:08:19.798Z,28.97
2018-03-02T11:10:47.074Z,29.82
2018-03-02T11:13:13.640Z,29.65
2018-03-02T11:15:40.226Z,31.95
2018-03-02T11:18:07.576Z,33.17
2018-03-02T11:20:34.162Z,34.48
2018-03-02T11:23:01.903Z,34.97
2018-03-02T11:25:28.458Z,34.75
2018-03-02T11:27:55.081Z,35.22
2018-03-02T11:30:21.682Z,36.48
2018-03-02T11:32:48.538Z,37.04
2018-03-02T11:35:15.841Z,37.25
2018-03-02T11:37:43.178Z,37.30
2018-03-02T11:40:09.806Z,37.70
2018-03-02T11:42:36.394Z,38.50
2018-03-02T11:45:02.997Z,38.87
2018-03-02T11:47:29.689Z,38.30
2018-03-02T11:49:57.386Z,38.27
2018-03-02T11:52:23.942Z,39.41
2018-03-02T11:54:50.529Z,38.11
2018-03-02T11:57:17.850Z,38.69
2018-03-02T11:59:45.199Z,39.27
2018-03-02T12:02:12.127Z,38.58
2018-03-02T12:04:38.719Z,38.40
2018-03-02T12:07:06.060Z,37.94
2018-03-02T12:09:33.394Z,38.73
2018-03-02T12:12:00.737Z,38.23
2018-03-02T12:14:27.555Z,38.69
2018-03-02T12:16:54.133Z,37.94
2018-03-02T12:19:20.674Z,39.11
2018-03-02T12:21:47.294Z,38.41
2018-03-02T12:24:13.860Z,38.68
2018-03-02T12:26:40.967Z,39.82
2018-03-02T12:29:07.554Z,40.07
2018-03-02T12:31:34.167Z,40.74
2018-03-02T12:34:01.486Z,39.43
2018-03-02T12:36:28.038Z,39.50
2018-03-02T12:38:55.362Z,40.05
2018-03-02T12:41:22.318Z,40.66
2018-03-02T12:43:48.895Z,42.15
2018-03-02T12:46:15.544Z,42.72
2018-03-02T12:48:42.313Z,41.64
2018-03-02T12:51:08.919Z,41.93
2018-03-02T12:53:37.084Z,42.45
2018-03-02T12:56:04.393Z,40.65
2018-03-02T12:58:30.981Z,40.29
2018-03-02T13:00:57.656Z,39.14
2018-03-02T13:03:24.259Z,38.56
2018-03-02T13:05:50.900Z,40.10
2018-03-02T13:08:17.458Z,41.35
2018-03-02T13:10:44.053Z,41.08
2018-03-02T13:13:11.431Z,40.23
2018-03-02T13:15:38.038Z,40.54
2018-03-02T13:18:05.420Z,40.18
2018-03-02T13:20:32.032Z,40.88
2018-03-02T13:22:58.690Z,41.38
2018-03-02T13:25:25.327Z,40.86
2018-03-02T13:28:11.022Z,41.46
2018-03-02T13:30:37.546Z,43.60
2018-03-02T13:33:23.438Z,43.29
2018-03-02T13:35:50.023Z,43.30
2018-03-02T13:38:16.605Z,44.13
2018-03-02T13:41:02.335Z,44.34
2018-03-02T13:43:29.627Z,44.19
2018-03-02T13:45:56.337Z,44.12
2018-03-02T13:48:42.142Z,45.18
2018-03-02T13:51:08.689Z,46.33
2018-03-02T13:53:35.323Z,46.31
2018-03-02T13:56:02.695Z,46.41
2018-03-02T13:58:29.324Z,46.49
2018-03-02T14:00:55.945Z,46.60
2018-03-02T14:03:40.811Z,46.72
2018-03-02T14:06:07.386Z,47.00
2018-03-02T14:08:33.983Z,46.55
2018-03-02T14:11:00.604Z,46.68
2018-03-02T14:13:27.524Z,47.15
2018-03-02T14:15:54.107Z,46.57
2018-03-02T14:18:20.739Z,47.89
2018-03-02T14:20:48.104Z,47.53
2018-03-02T14:23:14.754Z,47.96
2018-03-02T14:25:41.389Z,47.79
2018-03-02T14:28:08.020Z,48.47
2018-03-02T14:30:35.376Z,48.59
2018-03-02T14:33:02.894Z,49.19
2018-03-02T14:35:29.446Z,49.83
2018-03-02T14:37:56.022Z,49.80
2018-03-02T14:40:23.368Z,49.45
2018-03-02T14:42:50.710Z,49.73
2018-03-02T14:45:18.060Z,49.78
2018-03-02T14:47:44.959Z,50.75
2018-03-02T14:50:11.536Z,50.83
2018-03-02T14:52:38.151Z,51.99
2018-03-02T14:55:05.091Z,53.12
2018-03-02T14:57:31.678Z,53.79
2018-03-02T14:59:58.971Z,52.81
2018-03-02T15:02:25.987Z,53.64
2018-03-02T15:04:52.519Z,55.10
2018-03-02T15:07:19.113Z,55.46
2018-03-02T15:09:45.691Z,54.22
2018-03-02T15:12:12.324Z,54.74
2018-03-02T15:14:38.983Z,55.63
2018-03-02T15:17:05.548Z,55.16
2018-03-02T15:19:32.115Z,55.58
2018-03-02T15:21:58.713Z,56.19
2018-03-02T15:24:25.355Z,56.33
2018-03-02T15:26:51.951Z,56.53
2018-03-02T15:29:18.830Z,57.21
2018-03-02T15:31:45.473Z,57.02
2018-03-02T15:34:12.050Z,58.46
2018-03-02T15:36:39.408Z,59.81
2018-03-02T15:39:06.769Z,61.49
2018-03-02T15:41:34.099Z,62.34
2018-03-02T15:44:00.776Z,64.12
2018-03-02T15:46:27.334Z,65.63
2018-03-02T15:48:53.903Z,65.87
2018-03-02T15:51:21.340Z,66.63
2018-03-02T15:53:47.921Z,66.49
2018-03-02T15:56:14.556Z,66.92
2018-03-02T15:58:41.118Z,67.73
2018-03-02T16:01:07.689Z,67.96
2018-03-02T16:03:34.430Z,68.40
2018-03-02T16:06:01.055Z,69.66
2018-03-02T16:08:27.767Z,70.58
2018-03-02T16:10:54.369Z,70.64
2018-03-02T16:13:21.024Z,70.66
2018-03-02T16:15:48.372Z,71.20
2018-03-02T16:18:15.139Z,71.41
2018-03-02T16:20:41.927Z,71.88
2018-03-02T16:23:08.485Z,72.17
2018-03-02T16:25:35.110Z,71.79
2018-03-02T16:28:01.807Z,72.42
2018-03-02T16:30:28.489Z,73.01
2018-03-02T16:32:55.314Z,73.09
2018-03-02T16:35:21.899Z,73.54
2018-03-02T16:37:48.553Z,73.89
2018-03-02T16:40:15.153Z,74.22
2018-03-02T16:42:41.766Z,74.17
2018-03-02T16:45:08.375Z,74.96
2018-03-02T16:47:34.968Z,75.48
2018-03-02T16:50:01.652Z,75.38
2018-03-02T16:52:28.298Z,75.33
2018-03-02T16:54:54.927Z,76.11
2018-03-02T16:57:21.606Z,76.61
2018-03-02T16:59:48.195Z,77.08
2018-03-02T17:02:14.909Z,77.50
2018-03-02T17:04:41.759Z,77.64
2018-03-02T17:07:08.327Z,78.09
2018-03-02T17:09:34.908Z,78.28
2018-03-02T17:12:01.806Z,78.17
2018-03-02T17:14:28.401Z,78.45
2018-03-02T17:16:55.729Z,78.85
2018-03-02T17:19:22.672Z,78.76
2018-03-02T17:21:49.233Z,79.23
2018-03-02T17:24:16.544Z,79.53
2018-03-02T17:26:43.186Z,79.88
2018-03-02T17:29:09.746Z,80.03
2018-03-02T17:31:36.374Z,80.11
2018-03-02T17:34:03.746Z,80.20
2018-03-02T17:36:30.386Z,80.38
2018-03-02T17:38:57.005Z,80.39
2018-03-02T17:41:23.587Z,81.06
2018-03-02T17:43:50.151Z,81.56
2018-03-02T17:46:17.506Z,81.62
2018-03-02T17:48:44.929Z,81.55
2018-03-02T17:51:11.565Z,81.60
2018-03-02T17:53:38.151Z,81.71
2018-03-02T17:56:07.576Z,81.86
2018-03-02T17:58:34.964Z,81.69
2018-03-02T18:01:01.659Z,82.02
2018-03-02T18:03:28.241Z,81.95
2018-03-02T18:05:54.868Z,82.37
2018-03-02T18:08:21.626Z,82.18
2018-03-02T18:10:48.257Z,82.18
2018-03-02T18:13:14.934Z,82.31
2018-03-02T18:15:41.483Z,82.45
2018-03-02T18:18:08.089Z,82.51
2018-03-02T18:20:34.712Z,82.61
2018-03-02T18:23:01.300Z,82.48
2018-03-02T18:25:28.642Z,82.87
2018-03-02T18:27:56.018Z,83.14
2018-03-02T18:30:22.588Z,83.25
2018-03-02T18:32:49.189Z,83.14
2018-03-02T18:35:16.502Z,82.83
2018-03-02T18:37:43.063Z,82.92
2018-03-02T18:40:09.727Z,82.95
2018-03-02T18:42:37.074Z,82.68
2018-03-02T18:45:04.427Z,82.53
2018-03-02T18:47:31.114Z,82.26
2018-03-02T18:49:57.696Z,81.94
2018-03-02T18:52:24.558Z,82.01
2018-03-02T18:54:51.158Z,81.84
2018-03-02T18:57:17.829Z,82.14
2018-03-02T18:59:45.375Z,81.69
2018-03-02T19:02:12.680Z,81.89
2018-03-02T19:04:39.280Z,81.91
2018-03-02T19:07:05.963Z,81.98
2018-03-02T19:09:32.584Z,81.42
2018-03-02T19:11:59.179Z,81.67
2018-03-02T19:14:26.501Z,81.83
2018-03-02T19:16:53.071Z,82.04
2018-03-02T19:19:19.654Z,82.22
2018-03-02T19:21:46.475Z,82.15
2018-03-02T19:24:13.081Z,82.03
2018-03-02T19:26:39.726Z,81.94
2018-03-02T19:29:07.082Z,81.69
2018-03-02T19:31:33.675Z,81.48
2018-03-02T19:34:00.285Z,81.47
2018-03-02T19:36:27.060Z,81.37
2018-03-02T19:38:53.783Z,81.38
2018-03-02T19:41:20.377Z,81.56
2018-03-02T19:43:47.746Z,80.80
2018-03-02T19:46:14.356Z,80.98
2018-03-02T19:48:41.768Z,80.73
2018-03-02T19:51:08.738Z,80.49
2018-03-02T19:53:35.321Z,80.62
2018-03-02T19:56:01.891Z,80.45
2018-03-02T19:58:28.517Z,80.21
2018-03-02T20:00:55.174Z,80.28
2018-03-02T20:03:22.502Z,80.91
2018-03-02T20:05:49.085Z,80.97
2018-03-02T20:08:16.010Z,81.07
2018-03-02T20:10:42.595Z,81.06
2018-03-02T20:13:09.195Z,80.98
2018-03-02T20:15:36.630Z,80.53
2018-03-02T20:18:03.214Z,80.45
2018-03-02T20:20:30.515Z,80.67
2018-03-02T20:22:57.120Z,80.70
2018-03-02T20:25:23.859Z,80.92
2018-03-02T20:27:50.465Z,80.99
2018-03-02T20:30:17.841Z,81.32
2018-03-02T20:32:44.508Z,81.07
2018-03-02T20:35:11.086Z,80.83
2018-03-02T20:37:37.675Z,80.70
2018-03-02T20:40:04.313Z,80.20
2018-03-02T20:42:30.938Z,80.46
2018-03-02T20:44:57.591Z,80.54
2018-03-02T20:47:24.274Z,80.00
2018-03-02T20:49:50.880Z,80.01
2018-03-02T20:52:17.501Z,79.59
2018-03-02T20:54:44.119Z,79.16
2018-03-02T20:57:11.468Z,79.03
2018-03-02T20:59:38.810Z,78.54
2018-03-02T21:02:05.550Z,78.66
2018-03-02T21:04:32.876Z,78.69
2018-03-02T21:06:59.485Z,78.82
2018-03-02T21:09:26.067Z,78.57
2018-03-02T21:11:52.980Z,78.78
2018-03-02T21:14:19.548Z,78.25
2018-03-02T21:16:46.956Z,78.31
2018-03-02T21:19:13.567Z,78.19
2018-03-02T21:21:40.942Z,77.80
2018-03-02T21:24:07.550Z,78.36
2018-03-02T21:26:34.894Z,78.51
2018-03-02T21:29:01.482Z,78.63
2018-03-02T21:31:28.091Z,78.42
2018-03-02T21:33:54.720Z,78.94
2018-03-02T21:36:22.060Z,78.79
2018-03-02T21:38:49.405Z,78.75
2018-03-02T21:41:15.981Z,78.58
2018-03-02T21:43:42.641Z,78.84
2018-03-02T21:46:09.190Z,79.16
2018-03-02T21:48:35.758Z,79.25
2018-03-02T21:51:03.198Z,79.17
2018-03-02T21:53:29.774Z,79.30
2018-03-02T21:55:56.393Z,79.28
2018-03-02T21:58:23.734Z,79.43
2018-03-02T22:00:50.642Z,78.81
2018-03-02T22:03:17.217Z,78.94
2018-03-02T22:05:43.803Z,79.14
2018-03-02T22:08:10.390Z,79.42
2018-03-02T22:10:36.965Z,79.55
2018-03-02T22:13:03.624Z,79.43
2018-03-02T22:15:30.202Z,79.44
2018-03-02T22:17:57.542Z,79.07
2018-03-02T22:20:24.122Z,78.29
2018-03-02T22:22:50.769Z,78.68
2018-03-02T22:25:17.375Z,79.30
2018-03-02T22:27:44.710Z,79.26
2018-03-02T22:30:11.555Z,79.11
2018-03-02T22:32:38.127Z,78.99
2018-03-02T22:35:05.454Z,78.71
2018-03-02T22:37:32.763Z,78.68
2018-03-02T22:39:59.335Z,78.24
2018-03-02T22:42:25.883Z,77.43
2018-03-02T22:44:52.476Z,77.43
2018-03-02T22:47:19.089Z,77.71
2018-03-02T22:49:45.663Z,77.50
2018-03-02T22:52:12.242Z,77.48
2018-03-02T22:54:39.538Z,77.75
2018-03-02T22:57:06.112Z,78.12
2018-03-02T22:59:32.659Z,77.90
2018-03-02T23:01:59.254Z,78.20
2018-03-02T23:04:25.850Z,78.46
2018-03-02T23:06:52.420Z,78.56
2018-03-02T23:09:19.007Z,78.38
2018-03-02T23:11:46.350Z,78.20
2018-03-02T23:14:13.250Z,78.22
2018-03-02T23:16:39.799Z,77.87
2018-03-02T23:19:06.355Z,77.83
2018-03-02T23:21:32.992Z,77.92
2018-03-02T23:24:00.359Z,77.53
2018-03-02T23:26:27.695Z,76.41
2018-03-02T23:28:54.311Z,76.40
2018-03-02T23:31:21.622Z,76.92
2018-03-02T23:33:48.974Z,77.36
2018-03-02T23:36:16.299Z,77.54
2018-03-02T23:38:43.639Z,77.33
2018-03-02T23:41:10.918Z,77.15
2018-03-02T23:43:38.214Z,77.60
2018-03-02T23:46:04.798Z,77.92
2018-03-02T23:48:31.358Z,77.61
2018-03-02T23:50:58.657Z,78.02
2018-03-02T23:53:25.234Z,77.78
2018-03-02T23:55:52.845Z,77.68
2018-03-02T23:58:19.421Z,78.04
